Time;durP1;ratioP1;P1;durP2;ratioP2;P2;SDS_P1;SDS_P2;PMS_P1;PMS_P2;Temp;Humidity;BMP_temperature;BMP_pressure;BME280_temperature;BME280_humidity;BME280_pressure;Samples;Min_cycle;Max_cycle;Signal;HPM_P1;HPM_P2
2023/12/30 00:00:15;;;;;;;;;;;;;;;13.28;57.43;100006.47;4961138;28;8420;-87
2023/12/30 00:02:44;;;;;;;;;;;;;;;13.34;57.86;100001.50;4976639;28;7143;-87
2023/12/30 00:05:18;;;;;;;;;;;;;;;13.43;57.43;100005.19;4978028;28;7013;-87
2023/12/30 00:07:53;;;;;;;;;;;;;;;13.42;57.45;99999.19;4977286;28;6926;-86
2023/12/30 00:10:18;;;;;;;;;;;;;;;13.48;57.18;100019.13;4958328;28;6955;-87
2023/12/30 00:12:50;;;;;;;;;;;;;;;13.46;57.03;100011.34;4978888;28;7070;-87
2023/12/30 00:15:21;;;;;;;;;;;;;;;13.51;57.00;100013.16;4964855;28;6929;-87
2023/12/30 00:17:52;;;;;;;;;;;;;;;13.47;56.81;99999.31;4966473;28;6949;-87
2023/12/30 00:20:19;;;;;;;;;;;;;;;13.44;56.73;100002.69;4967681;28;7050;-88
2023/12/30 00:23:03;;;;;;;;;;;;;;;13.45;57.35;100013.84;4978267;28;7013;-88
2023/12/30 00:25:35;;;;;;;;;;;;;;;13.40;57.09;100015.41;4981411;28;6975;-88
2023/12/30 00:28:02;;;;;;;;;;;;;;;13.39;56.19;100000.78;4977253;28;6822;-88
2023/12/30 00:30:28;;;;;;;;;;;;;;;13.36;56.53;100011.84;4980847;28;6947;-88
2023/12/30 00:32:54;;;;;;;;;;;;;;;13.32;57.03;100015.16;5010379;28;7191;-88
2023/12/30 00:35:34;;;;;;;;;;;;;;;13.28;56.13;100018.47;4992987;28;6861;-87
2023/12/30 00:38:09;;;;;;;;;;;;;;;13.23;56.78;100020.00;4973005;28;7025;-87
2023/12/30 00:40:49;;;;;;;;;;;;;;;13.22;57.07;100036.28;4997518;28;7120;-88
2023/12/30 00:43:19;;;;;;;;;;;;;;;13.20;56.92;100028.53;4993181;28;6917;-88
2023/12/30 00:45:55;;;;;;;;;;;;;;;13.14;56.47;100029.22;4979679;28;7468;-88
2023/12/30 00:48:32;;;;;;;;;;;;;;;13.10;57.27;100029.94;4995933;28;6867;-87
2023/12/30 00:51:16;;;;;;;;;;;;;;;13.11;56.79;100047.09;4994871;28;6756;-88
2023/12/30 00:53:42;;;;;;;;;;;;;;;13.12;56.73;100053.16;4982972;28;7015;-88
2023/12/30 00:56:14;;;;;;;;;;;;;;;13.09;56.35;100047.91;4991201;28;7884;-88
2023/12/30 00:58:51;;;;;;;;;;;;;;;13.06;56.82;100041.81;4999191;28;7047;-87
2023/12/30 01:01:20;;;;;;;;;;;;;;;13.02;57.20;100046.81;4997179;28;6895;-88
2023/12/30 01:03:46;;;;;;;;;;;;;;;12.98;56.91;100042.41;5001521;28;7042;-88
2023/12/30 01:06:26;;;;;;;;;;;;;;;12.98;56.70;100061.25;4996638;28;7292;-88
2023/12/30 01:08:54;;;;;;;;;;;;;;;12.97;56.26;100056.09;4975400;28;7021;-87
2023/12/30 01:11:22;;;;;;;;;;;;;;;12.95;57.29;100063.75;4980756;28;7042;-88
2023/12/30 01:13:51;;;;;;;;;;;;;;;12.94;56.91;100061.13;4963968;28;7041;-88
2023/12/30 01:16:17;;;;;;;;;;;;;;;13.01;57.31;100063.06;4978176;28;6992;-88
2023/12/30 01:18:43;;;;;;;;;;;;;;;13.02;57.73;100077.69;4982887;28;6954;-87
2023/12/30 01:21:13;;;;;;;;;;;;;;;13.04;57.50;100073.50;4984331;28;7916;-87
2023/12/30 01:23:38;;;;;;;;;;;;;;;12.95;56.63;100058.59;4992852;28;6944;-87
2023/12/30 01:26:04;;;;;;;;;;;;;;;12.80;57.73;100064.13;4993843;28;6958;-87
2023/12/30 01:28:31;;;;;;;;;;;;;;;12.69;57.86;100065.47;4991060;28;6967;-87
2023/12/30 01:30:56;;;;;;;;;;;;;;;12.57;57.74;100079.66;4975991;28;6965;-84
2023/12/30 01:33:25;;;;;;;;;;;;;;;12.48;58.01;100062.19;4975972;28;6949;-84
2023/12/30 01:35:51;;;;;;;;;;;;;;;12.44;58.62;100075.78;4973878;28;6992;-85
2023/12/30 01:38:17;;;;;;;;;;;;;;;12.42;58.86;100074.84;4985682;28;6944;-83
2023/12/30 01:40:48;;;;;;;;;;;;;;;12.44;58.54;100082.59;4987316;28;7160;-86
2023/12/30 01:43:30;;;;;;;;;;;;;;;12.44;58.34;100080.03;4974559;28;6945;-84
2023/12/30 01:46:03;;;;;;;;;;;;;;;12.42;59.37;100089.38;4991911;28;6812;-84
2023/12/30 01:48:30;;;;;;;;;;;;;;;12.41;58.78;100106.50;4982266;28;6972;-84
2023/12/30 01:51:00;;;;;;;;;;;;;;;12.38;58.96;100103.81;4975071;28;6996;-85
2023/12/30 01:53:28;;;;;;;;;;;;;;;12.39;59.18;100109.84;4976441;28;7189;-85
2023/12/30 01:56:01;;;;;;;;;;;;;;;12.42;58.98;100102.22;4977152;28;7047;-84
2023/12/30 01:58:30;;;;;;;;;;;;;;;12.46;58.85;100116.97;4976674;28;6997;-86
2023/12/30 02:00:58;;;;;;;;;;;;;;;12.47;59.43;100109.28;4977298;28;6960;-85
2023/12/30 02:03:24;;;;;;;;;;;;;;;12.54;59.39;100101.81;4997921;28;6793;-84
2023/12/30 02:05:52;;;;;;;;;;;;;;;12.60;59.40;100100.31;4991861;28;6934;-85
2023/12/30 02:08:24;;;;;;;;;;;;;;;12.62;58.77;100102.94;4975391;28;7264;-85
2023/12/30 02:10:50;;;;;;;;;;;;;;;12.64;59.13;100104.72;4969277;28;7028;-85
2023/12/30 02:13:18;;;;;;;;;;;;;;;12.62;58.47;100097.81;4977727;28;6953;-85
2023/12/30 02:15:43;;;;;;;;;;;;;;;12.60;58.99;100108.03;4994967;28;7380;-85
2023/12/30 02:18:12;;;;;;;;;;;;;;;12.59;59.30;100096.00;4976822;28;7151;-85
2023/12/30 02:20:38;;;;;;;;;;;;;;;12.58;58.67;100104.53;4994023;28;7062;-84
2023/12/30 02:23:04;;;;;;;;;;;;;;;12.55;58.37;100104.41;4976981;28;6809;-85
2023/12/30 02:25:30;;;;;;;;;;;;;;;12.52;58.62;100109.44;4992358;28;7012;-84
2023/12/30 02:27:55;;;;;;;;;;;;;;;12.54;58.30;100118.06;4978263;28;7005;-86
2023/12/30 02:30:23;;;;;;;;;;;;;;;12.53;58.53;100116.34;4989543;28;7011;-84
2023/12/30 02:32:50;;;;;;;;;;;;;;;12.50;58.39;100126.53;4988427;28;7284;-84
2023/12/30 02:35:25;;;;;;;;;;;;;;;12.50;59.23;100126.53;4981604;28;6799;-85
2023/12/30 02:37:53;;;;;;;;;;;;;;;12.51;58.89;100123.13;4985838;28;7055;-86
2023/12/30 02:40:20;;;;;;;;;;;;;;;12.50;58.35;100124.81;4993615;28;7209;-86
2023/12/30 02:42:56;;;;;;;;;;;;;;;12.46;58.21;100122.09;4983741;28;6799;-87
2023/12/30 02:45:25;;;;;;;;;;;;;;;12.46;59.06;100124.66;5137948;23;6910;-76
2023/12/30 02:47:51;;;;;;;;;;;;;;;12.47;58.64;100127.28;4983519;28;8194;-80
2023/12/30 02:50:16;;;;;;;;;;;;;;;12.48;58.29;100113.59;4982023;28;7526;-79
2023/12/30 02:52:42;;;;;;;;;;;;;;;12.49;59.23;100127.34;4960817;28;8247;-80
2023/12/30 02:55:08;;;;;;;;;;;;;;;12.48;58.91;100125.59;4975275;28;6886;-79
2023/12/30 02:57:34;;;;;;;;;;;;;;;12.47;58.45;100137.56;4976390;28;6910;-80
2023/12/30 02:59:59;;;;;;;;;;;;;;;12.48;59.19;100138.44;4967532;28;7286;-80
2023/12/30 03:02:25;;;;;;;;;;;;;;;12.51;58.92;100128.25;4955096;28;6965;-79
2023/12/30 03:04:51;;;;;;;;;;;;;;;12.56;58.72;100141.28;4964357;28;7175;-78
2023/12/30 03:07:17;;;;;;;;;;;;;;;12.58;58.83;100139.63;4975300;28;7437;-79
2023/12/30 03:09:43;;;;;;;;;;;;;;;12.58;58.76;100143.09;4974037;28;7139;-78
2023/12/30 03:12:09;;;;;;;;;;;;;;;12.56;58.58;100134.47;4958519;28;7107;-79
2023/12/30 03:14:35;;;;;;;;;;;;;;;12.57;59.05;100143.91;4961953;28;8513;-80
2023/12/30 03:17:01;;;;;;;;;;;;;;;12.58;59.56;100150.81;4989321;28;6935;-80
2023/12/30 03:19:27;;;;;;;;;;;;;;;12.59;59.42;100138.81;4974145;28;6947;-79
2023/12/30 03:21:53;;;;;;;;;;;;;;;12.60;59.18;100144.03;4958359;28;6990;-79
2023/12/30 03:24:19;;;;;;;;;;;;;;;12.60;58.93;100133.72;4968733;28;6910;-80
2023/12/30 03:26:45;;;;;;;;;;;;;;;12.64;58.81;100133.00;4967361;28;8513;-80
2023/12/30 03:29:11;;;;;;;;;;;;;;;12.66;58.84;100132.22;4974655;28;6784;-80
2023/12/30 03:31:36;;;;;;;;;;;;;;;12.63;58.60;100138.97;4994625;28;6970;-78
2023/12/30 03:34:02;;;;;;;;;;;;;;;12.61;58.75;100142.34;4955531;28;6951;-78
2023/12/30 03:36:28;;;;;;;;;;;;;;;12.61;58.89;100142.34;4975058;28;6972;-79
2023/12/30 03:38:54;;;;;;;;;;;;;;;12.61;59.27;100139.75;4972528;28;6918;-79
2023/12/30 03:41:20;;;;;;;;;;;;;;;12.61;58.61;100140.63;4948569;28;7210;-79
2023/12/30 03:43:47;;;;;;;;;;;;;;;12.61;59.01;100139.75;4963531;28;7130;-80
2023/12/30 03:46:12;;;;;;;;;;;;;;;12.62;58.76;100151.78;4943487;28;7312;-79
2023/12/30 03:48:38;;;;;;;;;;;;;;;12.63;59.11;100146.69;4959751;28;7209;-80
2023/12/30 03:51:05;;;;;;;;;;;;;;;12.66;59.28;100140.78;4959387;28;6951;-79
2023/12/30 03:53:32;;;;;;;;;;;;;;;12.71;59.44;100144.41;4964416;28;6800;-79
2023/12/30 03:55:58;;;;;;;;;;;;;;;12.74;58.97;100141.03;4964071;28;7337;-76
2023/12/30 03:58:24;;;;;;;;;;;;;;;12.75;58.97;100125.69;4980284;28;6820;-77
2023/12/30 04:00:49;;;;;;;;;;;;;;;12.72;58.13;100135.88;4977208;28;8394;-76
2023/12/30 04:03:15;;;;;;;;;;;;;;;12.69;58.41;100148.59;4962950;28;8383;-76
2023/12/30 04:05:43;;;;;;;;;;;;;;;12.68;58.96;100140.84;4985186;28;6972;-76
2023/12/30 04:08:08;;;;;;;;;;;;;;;12.66;58.99;100137.34;4960805;28;8899;-76
2023/12/30 04:10:34;;;;;;;;;;;;;;;12.64;58.56;100139.88;4981388;28;8428;-76
2023/12/30 04:12:59;;;;;;;;;;;;;;;12.64;58.67;100140.72;4964585;28;10046;-75
2023/12/30 04:15:25;;;;;;;;;;;;;;;12.64;59.10;100140.72;4985986;28;6967;-77
2023/12/30 04:17:51;;;;;;;;;;;;;;;12.64;58.46;100145.00;4983403;28;6831;-76
2023/12/30 04:20:16;;;;;;;;;;;;;;;12.64;58.12;100142.44;4985135;28;6932;-76
2023/12/30 04:22:42;;;;;;;;;;;;;;;12.61;57.92;100135.47;4985562;28;6950;-77
2023/12/30 04:25:07;;;;;;;;;;;;;;;12.58;58.08;100135.38;4986059;28;6784;-76
2023/12/30 04:27:33;;;;;;;;;;;;;;;12.55;58.39;100145.53;4968691;28;8808;-76
2023/12/30 04:29:59;;;;;;;;;;;;;;;12.52;58.87;100157.44;4985849;28;6960;-76
2023/12/30 04:32:25;;;;;;;;;;;;;;;12.51;57.96;100143.69;4971922;28;7236;-75
2023/12/30 04:34:51;;;;;;;;;;;;;;;12.52;58.82;100155.72;4973203;28;6859;-76
2023/12/30 04:37:19;;;;;;;;;;;;;;;12.50;58.22;100150.50;4971676;28;6973;-76
2023/12/30 04:39:44;;;;;;;;;;;;;;;12.50;58.59;100141.94;4984820;28;6952;-76
2023/12/30 04:42:11;;;;;;;;;;;;;;;12.51;58.18;100153.97;4980476;28;6760;-76
2023/12/30 04:44:37;;;;;;;;;;;;;;;12.52;58.86;100150.56;4984700;28;6796;-76
2023/12/30 04:47:02;;;;;;;;;;;;;;;12.57;58.30;100161.91;4971434;28;8484;-76
2023/12/30 04:49:28;;;;;;;;;;;;;;;12.59;57.93;100154.22;4973073;28;8538;-76
2023/12/30 04:51:54;;;;;;;;;;;;;;;12.61;58.91;100156.03;4988293;28;7186;-77
2023/12/30 04:54:19;;;;;;;;;;;;;;;12.63;58.05;100154.41;4981376;28;6768;-76
2023/12/30 04:56:45;;;;;;;;;;;;;;;12.62;58.33;100155.22;4970903;28;6947;-76
2023/12/30 04:59:12;;;;;;;;;;;;;;;12.59;57.58;100165.41;4960677;28;8394;-76
2023/12/30 05:01:37;;;;;;;;;;;;;;;12.57;58.29;100163.59;4987598;28;8442;-76
2023/12/30 05:04:03;;;;;;;;;;;;;;;12.53;57.82;100170.31;4964005;28;8475;-76
2023/12/30 05:06:30;;;;;;;;;;;;;;;12.51;57.59;100169.41;4977023;28;7152;-77
2023/12/30 05:08:58;;;;;;;;;;;;;;;12.49;57.85;100160.75;4962444;28;6972;-79
2023/12/30 05:11:24;;;;;;;;;;;;;;;12.50;58.53;100160.78;4962722;28;6800;-78
2023/12/30 05:13:50;;;;;;;;;;;;;;;12.53;58.77;100175.47;4958067;28;8348;-78
2023/12/30 05:16:15;;;;;;;;;;;;;;;12.56;58.03;100161.84;4958677;28;8757;-80
2023/12/30 05:18:41;;;;;;;;;;;;;;;12.60;58.49;100168.84;4966143;28;7187;-80
2023/12/30 05:21:14;;;;;;;;;;;;;;;12.61;58.16;100166.34;4963708;28;7187;-79
2023/12/30 05:23:41;;;;;;;;;;;;;;;12.63;58.16;100163.81;4963863;28;7243;-79
2023/12/30 05:26:07;;;;;;;;;;;;;;;12.67;58.12;100165.66;4964331;28;7225;-80
2023/12/30 05:28:33;;;;;;;;;;;;;;;12.68;58.25;100167.41;4961936;28;6976;-80
2023/12/30 05:30:59;;;;;;;;;;;;;;;12.71;57.94;100176.94;4962783;28;8245;-79
2023/12/30 05:33:25;;;;;;;;;;;;;;;12.70;57.99;100170.94;4964260;28;7182;-79
2023/12/30 05:35:51;;;;;;;;;;;;;;;12.64;57.42;100179.28;4964157;28;6956;-79
2023/12/30 05:38:16;;;;;;;;;;;;;;;12.58;57.92;100188.47;4939634;28;6999;-79
2023/12/30 05:40:42;;;;;;;;;;;;;;;12.53;57.67;100198.59;4946299;28;6960;-79
2023/12/30 05:43:08;;;;;;;;;;;;;;;12.50;57.91;100193.34;4942266;28;7414;-78
2023/12/30 05:45:34;;;;;;;;;;;;;;;12.52;58.28;100190.84;4961933;28;7917;-78
2023/12/30 05:48:01;;;;;;;;;;;;;;;12.52;57.70;100191.72;4957437;28;7255;-79
2023/12/30 05:50:27;;;;;;;;;;;;;;;12.53;57.53;100195.16;4959770;28;6971;-79
2023/12/30 05:52:53;;;;;;;;;;;;;;;12.51;57.85;100197.66;4961756;28;6812;-79
2023/12/30 05:55:19;;;;;;;;;;;;;;;12.48;58.61;100188.16;4945886;28;7004;-79
2023/12/30 05:57:46;;;;;;;;;;;;;;;12.48;58.00;100192.44;4947873;28;6952;-79
2023/12/30 06:00:16;;;;;;;;;;;;;;;12.46;58.30;100194.06;4978204;28;7232;-79
2023/12/30 06:02:42;;;;;;;;;;;;;;;12.43;58.62;100199.06;4965606;28;6971;-78
2023/12/30 06:05:08;;;;;;;;;;;;;;;12.41;58.06;100193.00;4962848;28;6961;-79
2023/12/30 06:07:34;;;;;;;;;;;;;;;12.39;58.19;100197.22;4963825;28;6780;-79
2023/12/30 06:10:00;;;;;;;;;;;;;;;12.34;57.85;100200.47;4962561;28;6776;-79
2023/12/30 06:12:25;;;;;;;;;;;;;;;12.32;58.42;100212.41;4963278;28;7849;-79
2023/12/30 06:14:51;;;;;;;;;;;;;;;12.30;58.01;100216.63;4966223;28;7031;-79
2023/12/30 06:17:17;;;;;;;;;;;;;;;12.29;57.88;100214.88;4967174;28;8365;-76
2023/12/30 06:19:42;;;;;;;;;;;;;;;12.31;57.99;100220.03;4989846;28;7195;-76
2023/12/30 06:22:08;;;;;;;;;;;;;;;12.34;58.37;100222.75;4969066;28;6943;-76
2023/12/30 06:24:36;;;;;;;;;;;;;;;12.42;58.21;100228.16;4988907;28;7520;-76
2023/12/30 06:27:01;;;;;;;;;;;;;;;12.48;58.19;100230.97;4986118;28;7035;-76
2023/12/30 06:29:27;;;;;;;;;;;;;;;12.55;58.79;100227.78;4971070;28;6944;-76
2023/12/30 06:31:53;;;;;;;;;;;;;;;12.60;58.36;100236.56;4989981;28;6891;-76
2023/12/30 06:34:19;;;;;;;;;;;;;;;12.67;58.48;100236.81;4991185;28;6780;-75
2023/12/30 06:36:45;;;;;;;;;;;;;;;12.72;57.45;100242.97;4993103;28;7101;-75
2023/12/30 06:39:16;;;;;;;;;;;;;;;12.74;57.74;100249.03;4987567;28;6839;-75
2023/12/30 06:41:41;;;;;;;;;;;;;;;12.75;57.51;100251.69;4989979;28;7005;-75
2023/12/30 06:44:08;;;;;;;;;;;;;;;12.71;56.93;100248.94;4990819;28;6950;-75
2023/12/30 06:46:34;;;;;;;;;;;;;;;12.67;57.82;100254.81;4989692;28;6792;-75
2023/12/30 06:48:59;;;;;;;;;;;;;;;12.61;57.24;100258.03;4991628;28;7195;-75
2023/12/30 06:51:27;;;;;;;;;;;;;;;12.56;57.20;100259.53;4970697;28;7106;-75
2023/12/30 06:53:53;;;;;;;;;;;;;;;12.51;57.37;100261.94;4991040;28;6816;-75
2023/12/30 06:56:19;;;;;;;;;;;;;;;12.51;57.57;100259.38;4989232;28;6962;-75
2023/12/30 06:58:45;;;;;;;;;;;;;;;12.51;57.63;100267.06;4990980;28;6947;-75
2023/12/30 07:01:15;;;;;;;;;;;;;;;12.49;57.54;100266.16;4984373;28;6796;-75
2023/12/30 07:03:40;;;;;;;;;;;;;;;12.51;58.15;100272.22;4990991;28;6938;-75
2023/12/30 07:06:07;;;;;;;;;;;;;;;12.52;57.56;100281.69;4968509;28;6985;-76
2023/12/30 07:08:33;;;;;;;;;;;;;;;12.51;57.58;100269.66;4987008;28;6955;-76
2023/12/30 07:10:58;;;;;;;;;;;;;;;12.52;58.01;100267.97;4990811;28;6831;-76
2023/12/30 07:13:24;;;;;;;;;;;;;;;12.53;57.90;100264.56;4968685;28;6983;-76
2023/12/30 07:15:52;;;;;;;;;;;;;;;12.51;57.69;100259.38;4991538;28;6788;-76
2023/12/30 07:18:18;;;;;;;;;;;;;;;12.51;57.11;100261.94;4972035;28;7107;-75
2023/12/30 07:20:44;;;;;;;;;;;;;;;12.50;58.09;100268.75;5005036;28;6931;-75
2023/12/30 07:23:09;;;;;;;;;;;;;;;12.52;57.26;100266.25;4989449;28;7374;-75
2023/12/30 07:25:35;;;;;;;;;;;;;;;12.51;57.42;100269.66;4987329;28;7234;-76
2023/12/30 07:28:01;;;;;;;;;;;;;;;12.50;57.59;100273.03;4974801;28;7237;-76
2023/12/30 07:30:28;;;;;;;;;;;;;;;12.48;57.89;100267.81;4981626;28;6961;-76
2023/12/30 07:32:54;;;;;;;;;;;;;;;12.49;58.22;100271.28;4991329;28;6879;-75
2023/12/30 07:35:20;;;;;;;;;;;;;;;12.48;57.44;100265.25;4989809;28;6941;-75
2023/12/30 07:37:46;;;;;;;;;;;;;;;12.45;57.98;100272.88;4990483;28;6849;-75
2023/12/30 07:40:12;;;;;;;;;;;;;;;12.43;57.85;100269.38;4970196;28;7098;-75
2023/12/30 07:45:09;;;;;;;;;;;;;;;12.40;57.88;100276.06;5030141;28;6948;-78
2023/12/30 07:47:36;;;;;;;;;;;;;;;12.38;57.63;100281.16;5005514;28;7126;-78
2023/12/30 07:50:03;;;;;;;;;;;;;;;12.37;58.22;100289.69;5010240;28;6961;-78
2023/12/30 07:52:28;;;;;;;;;;;;;;;12.38;57.74;100285.44;5013627;28;6944;-78
2023/12/30 07:54:54;;;;;;;;;;;;;;;12.38;57.64;100296.56;5011644;28;7124;-78
2023/12/30 07:57:20;;;;;;;;;;;;;;;12.41;58.23;100285.53;5030604;28;7040;-76
2023/12/30 07:59:46;;;;;;;;;;;;;;;12.41;58.02;100280.41;5031778;28;6772;-75
2023/12/30 08:02:11;;;;;;;;;;;;;;;12.41;57.41;100289.00;5019863;28;7244;-75
2023/12/30 08:04:40;;;;;;;;;;;;;;;12.41;57.74;100299.28;5009524;28;7005;-75
2023/12/30 08:07:07;;;;;;;;;;;;;;;12.43;57.91;100304.47;5016376;23;7217;-90
2023/12/30 08:09:33;;;;;;;;;;;;;;;12.45;58.23;100310.53;4961238;28;7015;-90
2023/12/30 08:11:59;;;;;;;;;;;;;;;12.43;57.39;100305.34;4926009;29;6846;-89
2023/12/30 08:14:25;;;;;;;;;;;;;;;12.45;58.16;100297.69;4924029;29;6925;-87
2023/12/30 08:16:50;;;;;;;;;;;;;;;12.48;57.23;100308.09;4921087;29;6947;-87
2023/12/30 08:19:16;;;;;;;;;;;;;;;12.51;57.85;100318.50;4927655;29;6950;-87
2023/12/30 08:21:44;;;;;;;;;;;;;;;12.50;58.11;100309.03;4933823;29;6978;-87
2023/12/30 08:24:14;;;;;;;;;;;;;;;12.52;58.27;100325.38;4916846;29;6757;-88
2023/12/30 08:26:40;;;;;;;;;;;;;;;12.52;57.89;100321.94;4916377;29;6766;-90
2023/12/30 08:29:08;;;;;;;;;;;;;;;12.51;57.09;100333.91;4937335;29;7263;-87
2023/12/30 08:31:35;;;;;;;;;;;;;;;12.48;57.58;100328.66;4916565;28;6973;-88
2023/12/30 08:34:01;;;;;;;;;;;;;;;12.49;57.56;100325.28;5198746;23;7165;-76
2023/12/30 08:36:28;;;;;;;;;;;;;;;12.51;57.90;100328.78;4976605;28;6936;-77
2023/12/30 08:38:54;;;;;;;;;;;;;;;12.52;58.13;100335.66;4964123;28;6985;-78
2023/12/30 08:41:24;;;;;;;;;;;;;;;12.54;57.79;100340.88;4966656;28;7016;-78
2023/12/30 08:43:55;;;;;;;;;;;;;;;12.55;57.12;100343.50;4964201;28;6820;-79
2023/12/30 08:46:21;;;;;;;;;;;;;;;12.56;57.70;100345.28;4965077;28;7436;-79
2023/12/30 08:48:47;;;;;;;;;;;;;;;12.60;57.02;100344.56;4963001;28;7206;-79
2023/12/30 08:51:12;;;;;;;;;;;;;;;12.63;57.73;100352.38;4960665;28;7007;-79
2023/12/30 08:53:38;;;;;;;;;;;;;;;12.71;56.94;100351.81;4944154;28;7196;-79
2023/12/30 08:56:04;;;;;;;;;;;;;;;12.78;57.22;100352.09;4965785;28;7151;-79
2023/12/30 08:58:29;;;;;;;;;;;;;;;12.86;57.60;100356.66;4955092;28;7462;-79
2023/12/30 09:00:55;;;;;;;;;;;;;;;12.91;57.53;100343.16;4923438;28;8468;-79
2023/12/30 09:03:21;;;;;;;;;;;;;;;12.97;57.10;100351.94;4959993;28;6994;-79
2023/12/30 09:05:46;;;;;;;;;;;;;;;12.98;56.89;100341.66;4966613;28;6796;-79
2023/12/30 09:08:12;;;;;;;;;;;;;;;13.01;57.29;100344.38;4946040;28;7107;-78
2023/12/30 09:10:38;;;;;;;;;;;;;;;13.04;57.01;100341.06;4951332;28;6922;-78
2023/12/30 09:13:04;;;;;;;;;;;;;;;13.06;56.85;100345.41;4949472;28;6928;-78
2023/12/30 09:15:29;;;;;;;;;;;;;;;13.10;56.72;100340.41;4941759;28;9580;-78
2023/12/30 09:17:57;;;;;;;;;;;;;;;13.09;56.45;100344.66;4964387;28;6926;-79
2023/12/30 09:20:23;;;;;;;;;;;;;;;13.12;56.16;100338.75;4963674;28;7292;-79
2023/12/30 09:22:50;;;;;;;;;;;;;;;13.13;56.67;100336.22;4964441;28;6851;-79
2023/12/30 09:25:15;;;;;;;;;;;;;;;13.15;56.42;100344.00;4964116;28;8334;-78
2023/12/30 09:27:41;;;;;;;;;;;;;;;13.15;56.48;100337.19;4965287;28;7193;-78
2023/12/30 09:30:08;;;;;;;;;;;;;;;13.19;56.47;100346.75;4963649;28;6768;-78
2023/12/30 09:32:33;;;;;;;;;;;;;;;13.23;56.38;100344.28;4964090;28;7259;-79
2023/12/30 09:35:02;;;;;;;;;;;;;;;13.25;56.27;100345.22;4951372;28;7833;-78
2023/12/30 09:37:28;;;;;;;;;;;;;;;13.27;55.85;100343.56;4945591;28;7189;-78
2023/12/30 09:39:54;;;;;;;;;;;;;;;13.26;55.77;100358.13;4947693;28;6977;-79
2023/12/30 09:42:20;;;;;;;;;;;;;;;13.27;55.91;100346.16;4963142;28;6924;-78
2023/12/30 09:44:47;;;;;;;;;;;;;;;13.28;55.63;100356.50;4965186;28;7168;-79
2023/12/30 09:47:13;;;;;;;;;;;;;;;13.32;55.73;100354.91;4982574;28;6808;-77
2023/12/30 09:49:40;;;;;;;;;;;;;;;13.34;55.35;100354.13;4990713;23;6950;-77
2023/12/30 09:52:06;;;;;;;;;;;;;;;13.37;56.01;100345.66;4966920;28;6980;-77
2023/12/30 09:54:33;;;;;;;;;;;;;;;13.41;55.43;100357.81;4964747;28;7349;-77
2023/12/30 09:57:02;;;;;;;;;;;;;;;13.45;55.35;100353.69;4964735;28;9577;-77
2023/12/30 09:59:30;;;;;;;;;;;;;;;13.48;55.45;100351.22;4977727;28;7288;-77
2023/12/30 10:02:00;;;;;;;;;;;;;;;13.54;55.29;100348.00;4949839;28;6987;-77
2023/12/30 10:04:25;;;;;;;;;;;;;;;13.59;55.76;100359.31;4966529;28;6777;-77
2023/12/30 10:06:54;;;;;;;;;;;;;;;13.66;55.66;100353.56;4981314;28;7099;-77
2023/12/30 10:09:22;;;;;;;;;;;;;;;13.69;55.90;100351.09;4964354;28;7176;-77
2023/12/30 10:11:49;;;;;;;;;;;;;;;13.72;55.78;100348.63;5027421;23;6961;-77
2023/12/30 10:14:15;;;;;;;;;;;;;;;13.78;55.31;100352.22;5010849;28;6945;-77
2023/12/30 10:16:41;;;;;;;;;;;;;;;13.86;55.17;100361.09;4994906;28;7265;-77
2023/12/30 10:19:14;;;;;;;;;;;;;;;13.95;55.64;100358.84;4993561;28;6971;-77
2023/12/30 10:21:40;;;;;;;;;;;;;;;14.01;55.29;100359.03;4995957;28;6954;-77
2023/12/30 10:24:07;;;;;;;;;;;;;;;14.08;54.55;100367.84;5009760;28;7228;-77
2023/12/30 10:26:37;;;;;;;;;;;;;;;14.15;54.66;100353.47;5005929;28;7907;-77
2023/12/30 10:29:06;;;;;;;;;;;;;;;14.23;55.07;100346.84;5005401;28;6994;-77
2023/12/30 10:31:31;;;;;;;;;;;;;;;14.30;54.68;100351.38;4993630;28;7111;-78
2023/12/30 10:33:57;;;;;;;;;;;;;;;14.35;53.86;100342.91;5004954;28;6960;-80
2023/12/30 10:36:27;;;;;;;;;;;;;;;14.39;53.86;100339.59;4996593;28;6974;-77
2023/12/30 10:38:54;;;;;;;;;;;;;;;14.44;54.42;100344.09;5009568;28;6776;-77
2023/12/30 10:41:20;;;;;;;;;;;;;;;14.52;53.58;100343.44;4998339;28;6779;-77
2023/12/30 10:43:46;;;;;;;;;;;;;;;14.58;53.45;100341.94;4990543;28;6961;-77
2023/12/30 10:46:12;;;;;;;;;;;;;;;14.64;53.56;100332.63;4974546;28;6921;-77
2023/12/30 10:48:55;;;;;;;;;;;;;;;14.68;53.01;100329.31;4975237;28;6789;-77
2023/12/30 10:51:27;;;;;;;;;;;;;;;14.74;53.04;100329.53;4974286;28;7288;-77
2023/12/30 10:54:05;;;;;;;;;;;;;;;14.82;53.40;100337.47;4956337;28;7115;-77
2023/12/30 10:56:40;;;;;;;;;;;;;;;14.93;52.81;100317.16;4981434;28;7882;-76
2023/12/30 10:59:07;;;;;;;;;;;;;;;15.04;52.10;100327.81;4966781;28;7018;-77
2023/12/30 11:01:35;;;;;;;;;;;;;;;15.13;52.35;100321.19;4963963;28;6796;-76
2023/12/30 11:04:03;;;;;;;;;;;;;;;15.20;51.78;100329.09;4961805;28;7082;-77
2023/12/30 11:06:43;;;;;;;;;;;;;;;15.20;52.07;100316.19;4945787;28;7059;-77
2023/12/30 11:09:09;;;;;;;;;;;;;;;15.20;51.40;100305.88;4964917;28;7276;-76
2023/12/30 11:11:39;;;;;;;;;;;;;;;15.13;51.12;100323.75;4980970;28;6925;-77
2023/12/30 11:14:15;;;;;;;;;;;;;;;15.06;51.03;100336.47;4948697;28;6961;-76
2023/12/30 11:16:40;;;;;;;;;;;;;;;15.02;50.99;100334.59;4947627;28;6959;-77
2023/12/30 11:19:06;;;;;;;;;;;;;;;15.02;50.95;100329.44;4982041;28;6932;-77
2023/12/30 11:21:43;;;;;;;;;;;;;;;15.04;51.24;100343.28;4979734;28;7166;-77
2023/12/30 11:24:11;;;;;;;;;;;;;;;15.05;51.20;100345.88;4972426;28;7497;-77
2023/12/30 11:26:40;;;;;;;;;;;;;;;15.08;51.61;100333.09;4963423;28;7111;-77
2023/12/30 11:29:11;;;;;;;;;;;;;;;15.11;50.60;100337.44;4978811;28;7003;-77
2023/12/30 11:31:41;;;;;;;;;;;;;;;15.25;51.11;100323.22;4968290;28;6800;-77
2023/12/30 11:34:07;;;;;;;;;;;;;;;15.39;51.41;100323.63;4969731;28;6788;-78
2023/12/30 11:36:33;;;;;;;;;;;;;;;15.48;50.21;100315.22;4961447;28;7247;-76
2023/12/30 11:39:00;;;;;;;;;;;;;;;15.49;49.87;100310.94;4971919;28;8290;-76
2023/12/30 11:41:29;;;;;;;;;;;;;;;15.51;49.81;100306.69;4967957;28;7332;-76
2023/12/30 11:44:02;;;;;;;;;;;;;;;15.59;49.74;100307.75;4954210;28;6955;-77
2023/12/30 11:46:29;;;;;;;;;;;;;;;15.79;48.97;100299.66;4971149;28;8532;-77
2023/12/30 11:48:56;;;;;;;;;;;;;;;16.02;48.79;100313.16;4969851;28;6805;-77
2023/12/30 11:51:28;;;;;;;;;;;;;;;16.16;48.29;100303.16;4982086;28;7385;-76
2023/12/30 11:53:54;;;;;;;;;;;;;;;16.19;47.86;100297.19;4950859;28;6992;-76
2023/12/30 11:56:21;;;;;;;;;;;;;;;16.14;47.46;100307.44;4984909;28;6962;-76
2023/12/30 11:58:49;;;;;;;;;;;;;;;16.09;47.78;100296.97;4968491;28;6804;-77
2023/12/30 12:01:19;;;;;;;;;;;;;;;16.13;48.13;100292.75;4962454;28;6820;-77
2023/12/30 12:03:44;;;;;;;;;;;;;;;16.24;47.95;100288.69;4968831;28;7242;-77
2023/12/30 12:06:11;;;;;;;;;;;;;;;16.54;48.23;100284.16;4967388;28;7454;-76
2023/12/30 12:08:38;;;;;;;;;;;;;;;16.87;47.63;100274.50;4968337;28;6957;-76
2023/12/30 12:11:05;;;;;;;;;;;;;;;16.98;46.46;100262.63;4984198;28;6789;-76
2023/12/30 12:13:31;;;;;;;;;;;;;;;16.86;46.36;100264.97;4964711;28;6962;-77
2023/12/30 12:15:56;;;;;;;;;;;;;;;16.67;46.53;100256.84;4965864;28;7020;-77
2023/12/30 12:18:23;;;;;;;;;;;;;;;16.47;46.63;100259.88;4973182;28;7229;-77
2023/12/30 12:20:53;;;;;;;;;;;;;;;16.32;46.76;100264.72;4974592;28;6938;-77
2023/12/30 12:23:23;;;;;;;;;;;;;;;16.14;47.00;100260.91;4975785;28;7191;-77
2023/12/30 12:25:49;;;;;;;;;;;;;;;15.98;47.50;100258.78;4974302;28;6991;-77
2023/12/30 12:28:19;;;;;;;;;;;;;;;15.81;47.52;100249.75;4971517;28;6927;-77
2023/12/30 12:30:45;;;;;;;;;;;;;;;15.68;47.57;100248.59;4975295;28;6801;-77
2023/12/30 12:33:13;;;;;;;;;;;;;;;15.57;47.61;100252.63;4975066;28;6935;-77
2023/12/30 12:35:39;;;;;;;;;;;;;;;15.47;47.85;100233.41;4987251;28;7203;-77
2023/12/30 12:38:05;;;;;;;;;;;;;;;15.38;47.79;100251.25;4973854;28;6860;-77
2023/12/30 12:40:32;;;;;;;;;;;;;;;15.32;48.08;100248.53;4973085;28;6840;-77
2023/12/30 12:42:58;;;;;;;;;;;;;;;15.27;48.46;100236.34;4986652;28;7154;-77
2023/12/30 12:45:24;;;;;;;;;;;;;;;15.28;48.36;100237.25;4973076;28;6999;-78
2023/12/30 12:47:49;;;;;;;;;;;;;;;15.26;48.88;100237.19;4976779;28;6848;-77
2023/12/30 12:50:15;;;;;;;;;;;;;;;15.29;48.63;100231.25;4975278;28;7216;-77